createdAt,value
2023-01-19T00:00:32.690Z,4.57
2023-01-19T00:02:59.893Z,6.20
2023-01-19T00:05:27.053Z,5.35
2023-01-19T00:07:54.159Z,3.35
2023-01-19T00:10:21.364Z,3.15
2023-01-19T00:12:48.515Z,3.72
2023-01-19T00:15:15.612Z,1.83
2023-01-19T00:17:42.752Z,2.38
2023-01-19T00:20:10.387Z,1.83
2023-01-19T00:22:37.500Z,2.22
2023-01-19T00:25:04.774Z,4.35
2023-01-19T00:27:34.935Z,2.00
2023-01-19T00:30:02.384Z,3.05
2023-01-19T00:32:29.544Z,4.07
2023-01-19T00:34:56.611Z,4.93
2023-01-19T00:37:24.348Z,3.65
2023-01-19T00:39:51.464Z,5.53
2023-01-19T00:42:37.546Z,5.60
2023-01-19T00:45:05.238Z,4.85
2023-01-19T00:47:33.142Z,7.50
2023-01-19T00:50:00.261Z,5.95
2023-01-19T00:52:27.415Z,7.22
2023-01-19T00:54:54.498Z,6.70
2023-01-19T00:57:21.628Z,6.32
2023-01-19T00:59:48.767Z,7.57
2023-01-19T01:02:16.056Z,8.25
2023-01-19T01:04:43.320Z,7.78
2023-01-19T01:07:10.535Z,9.65
2023-01-19T01:09:37.621Z,9.43
2023-01-19T01:12:06.050Z,8.25
2023-01-19T01:14:33.305Z,8.95
2023-01-19T01:17:00.671Z,8.95
2023-01-19T01:19:27.957Z,9.27
2023-01-19T01:21:55.623Z,9.85
2023-01-19T01:24:22.818Z,10.90
2023-01-19T01:26:49.981Z,11.27
2023-01-19T01:29:17.217Z,9.63
2023-01-19T01:31:44.389Z,12.60
2023-01-19T01:34:11.694Z,12.60
2023-01-19T01:36:38.875Z,11.45
2023-01-19T01:39:06.103Z,13.30
2023-01-19T01:41:33.754Z,12.30
2023-01-19T01:44:02.991Z,13.07
2023-01-19T01:46:31.326Z,13.70
2023-01-19T01:49:14.189Z,13.35
2023-01-19T01:51:41.251Z,14.68
2023-01-19T01:54:16.712Z,12.55
2023-01-19T01:56:45.339Z,15.30
2023-01-19T01:59:25.938Z,14.20
2023-01-19T02:02:16.333Z,14.90
2023-01-19T02:04:46.947Z,14.98
2023-01-19T02:07:36.820Z,18.90
2023-01-19T02:10:23.000Z,11.63
2023-01-19T02:13:09.056Z,12.52
2023-01-19T02:15:36.196Z,12.70
2023-01-19T02:18:03.361Z,13.38
2023-01-19T02:20:31.631Z,12.50
2023-01-19T02:23:01.635Z,14.27
2023-01-19T02:25:28.914Z,13.25
2023-01-19T02:27:56.595Z,11.65
2023-01-19T02:30:24.146Z,14.32
2023-01-19T02:32:52.233Z,14.68
2023-01-19T02:35:19.587Z,15.55
2023-01-19T02:37:47.076Z,13.68
2023-01-19T02:40:16.067Z,15.48
2023-01-19T02:42:45.365Z,14.68
2023-01-19T02:45:14.474Z,18.52
2023-01-19T02:47:43.975Z,17.05
2023-01-19T02:50:31.647Z,15.35
2023-01-19T02:53:05.413Z,14.48
2023-01-19T02:55:33.167Z,14.52
2023-01-19T02:58:06.538Z,14.23
2023-01-19T03:00:40.804Z,19.38
2023-01-19T03:03:11.125Z,12.00
2023-01-19T03:05:44.386Z,12.95
2023-01-19T03:08:30.164Z,13.23
2023-01-19T03:10:57.880Z,15.95
2023-01-19T03:13:39.429Z,11.95
2023-01-19T03:16:10.042Z,13.55
2023-01-19T03:18:37.952Z,12.07
2023-01-19T03:21:06.930Z,12.88
2023-01-19T03:23:35.478Z,13.65
2023-01-19T03:26:03.534Z,13.65
2023-01-19T03:28:30.984Z,13.13
2023-01-19T03:31:04.131Z,11.85
2023-01-19T03:33:33.364Z,12.38
2023-01-19T03:36:05.439Z,13.10
2023-01-19T03:41:00.999Z,11.88
2023-01-19T03:43:29.147Z,10.98
2023-01-19T03:45:56.956Z,9.32
2023-01-19T03:48:24.491Z,11.48
2023-01-19T03:50:52.581Z,9.45
2023-01-19T03:53:22.587Z,6.95
2023-01-19T03:55:51.585Z,7.75
2023-01-19T03:58:18.823Z,8.18
2023-01-19T04:00:45.929Z,7.72
2023-01-19T04:03:18.056Z,8.18
2023-01-19T04:05:45.302Z,8.40
2023-01-19T04:08:12.465Z,8.43
2023-01-19T04:10:39.693Z,10.38
2023-01-19T04:13:06.815Z,8.85
2023-01-19T04:15:34.082Z,8.68
2023-01-19T04:18:01.494Z,7.97
2023-01-19T04:20:29.151Z,8.88
2023-01-19T04:23:00.061Z,8.88
2023-01-19T04:25:27.768Z,9.02
2023-01-19T04:27:55.275Z,7.65
2023-01-19T04:30:22.672Z,7.45
2023-01-19T04:32:49.861Z,8.25
2023-01-19T04:35:17.220Z,6.85
2023-01-19T04:37:45.064Z,6.50
2023-01-19T04:40:12.764Z,5.63
2023-01-19T04:42:39.950Z,7.30
2023-01-19T04:45:07.394Z,5.22
2023-01-19T04:47:34.566Z,5.60
2023-01-19T04:50:01.720Z,6.32
2023-01-19T04:52:35.125Z,6.43
2023-01-19T04:55:06.753Z,5.35
2023-01-19T04:57:33.907Z,2.70
2023-01-19T05:00:01.151Z,1.65
2023-01-19T05:02:28.326Z,7.82
2023-01-19T05:04:55.436Z,3.17
2023-01-19T05:07:22.541Z,3.03
2023-01-19T05:09:49.683Z,11.82
2023-01-19T05:12:16.968Z,5.38
2023-01-19T05:14:44.110Z,8.02
2023-01-19T05:17:11.251Z,4.90
2023-01-19T05:19:38.413Z,4.68
2023-01-19T05:22:06.182Z,7.47
2023-01-19T05:24:33.336Z,7.70
2023-01-19T05:27:00.466Z,3.13
2023-01-19T05:29:27.660Z,3.67
2023-01-19T05:31:54.742Z,1.17
2023-01-19T05:34:21.869Z,0.93
2023-01-19T05:36:48.996Z,4.65
2023-01-19T05:39:16.205Z,3.50
2023-01-19T05:41:45.443Z,3.42
2023-01-19T05:44:12.985Z,2.22
2023-01-19T05:46:40.837Z,7.82
2023-01-19T05:49:08.279Z,2.35
2023-01-19T05:51:38.187Z,1.95
2023-01-19T05:54:08.903Z,2.20
2023-01-19T05:56:36.368Z,4.05
2023-01-19T05:59:03.540Z,0.82
2023-01-19T06:01:30.611Z,1.20
2023-01-19T06:03:57.759Z,7.70
2023-01-19T06:06:24.863Z,2.08
2023-01-19T06:08:52.083Z,1.67
2023-01-19T06:11:19.571Z,0.80
2023-01-19T06:13:47.498Z,3.15
2023-01-19T06:16:14.651Z,4.18
2023-01-19T06:18:41.943Z,1.30
2023-01-19T06:21:09.498Z,0.30
2023-01-19T06:23:37.032Z,2.97
2023-01-19T06:26:04.873Z,0.57
2023-01-19T06:28:32.199Z,1.92
2023-01-19T06:30:59.367Z,3.28
2023-01-19T06:33:28.018Z,5.18
2023-01-19T06:35:55.822Z,6.30
2023-01-19T06:38:23.116Z,2.90
2023-01-19T06:40:54.612Z,4.90
2023-01-19T06:43:22.290Z,3.30
2023-01-19T06:45:50.237Z,3.70
2023-01-19T06:48:17.428Z,9.80
2023-01-19T06:50:47.405Z,13.38
2023-01-19T06:53:16.543Z,4.38
2023-01-19T06:55:44.752Z,3.42
2023-01-19T06:58:12.440Z,5.03
2023-01-19T07:00:39.582Z,4.22
2023-01-19T07:03:10.302Z,9.40
2023-01-19T07:05:37.465Z,6.47
2023-01-19T07:08:04.991Z,2.97
2023-01-19T07:11:21.605Z,5.25
2023-01-19T07:13:19.459Z,15.35
2023-01-19T07:15:46.657Z,7.28
2023-01-19T07:18:13.803Z,7.82
2023-01-19T07:20:40.930Z,9.38
2023-01-19T07:23:08.033Z,8.23
2023-01-19T07:25:35.135Z,11.52
2023-01-19T07:28:02.244Z,10.55
2023-01-19T07:30:29.597Z,4.97
2023-01-19T07:32:58.353Z,12.68
2023-01-19T07:35:26.252Z,7.38
2023-01-19T07:37:53.431Z,7.60
2023-01-19T07:40:22.177Z,7.70
2023-01-19T07:42:52.128Z,6.03
2023-01-19T07:45:20.706Z,4.22
2023-01-19T07:47:48.939Z,3.90
2023-01-19T07:50:16.942Z,9.32
2023-01-19T07:52:44.745Z,7.45
2023-01-19T07:55:11.968Z,4.75
2023-01-19T07:57:39.046Z,8.52
2023-01-19T08:00:06.414Z,7.47
2023-01-19T08:02:35.954Z,4.50
2023-01-19T08:05:03.140Z,7.25
2023-01-19T08:07:30.372Z,10.52
2023-01-19T08:09:57.457Z,10.70
2023-01-19T08:12:24.506Z,5.93
2023-01-19T08:14:51.626Z,16.00
2023-01-19T08:17:19.382Z,5.72
2023-01-19T08:19:46.485Z,4.40
2023-01-19T08:22:13.599Z,5.97
2023-01-19T08:24:40.794Z,7.47
2023-01-19T08:27:09.853Z,3.38
2023-01-19T08:29:36.993Z,3.85
2023-01-19T08:32:04.828Z,7.80
2023-01-19T08:34:32.036Z,9.18
2023-01-19T08:36:59.556Z,10.32
2023-01-19T08:39:27.384Z,4.93
2023-01-19T08:41:54.599Z,8.13
2023-01-19T08:44:21.876Z,5.60
2023-01-19T08:46:49.176Z,12.10
2023-01-19T08:49:16.539Z,8.13
2023-01-19T08:51:46.906Z,16.20
2023-01-19T08:54:17.076Z,5.90
2023-01-19T08:56:45.432Z,10.70
2023-01-19T08:59:14.066Z,10.43
2023-01-19T09:01:41.527Z,9.75
2023-01-19T09:04:08.842Z,14.50
2023-01-19T09:06:35.979Z,6.32
2023-01-19T09:09:03.180Z,5.97
2023-01-19T09:11:30.910Z,9.00
2023-01-19T09:13:58.181Z,7.50
2023-01-19T09:16:27.081Z,15.75
2023-01-19T09:18:54.361Z,7.00
2023-01-19T09:21:21.487Z,16.58
2023-01-19T09:23:49.397Z,5.65
2023-01-19T09:26:16.717Z,5.82
2023-01-19T09:28:44.125Z,6.85
2023-01-19T09:31:11.420Z,3.33
2023-01-19T09:33:38.692Z,12.90
2023-01-19T09:36:05.964Z,4.75
2023-01-19T09:38:33.950Z,5.55
2023-01-19T09:41:01.623Z,4.90
2023-01-19T09:43:34.531Z,5.47
2023-01-19T09:46:02.743Z,2.22
2023-01-19T09:48:30.032Z,4.05
2023-01-19T09:50:58.815Z,5.43
2023-01-19T09:53:42.997Z,6.22
2023-01-19T09:56:11.955Z,4.55
2023-01-19T09:58:39.019Z,4.30
2023-01-19T10:01:13.574Z,3.75
2023-01-19T10:03:42.120Z,6.18
2023-01-19T10:06:12.449Z,6.03
2023-01-19T10:08:42.802Z,9.43
2023-01-19T10:11:38.086Z,3.50
2023-01-19T10:14:18.928Z,7.47
2023-01-19T10:16:56.820Z,3.25
2023-01-19T10:19:27.054Z,7.13
2023-01-19T10:21:55.970Z,6.05
2023-01-19T10:24:31.117Z,5.75
2023-01-19T10:26:58.217Z,4.57
2023-01-19T10:29:38.508Z,5.65
2023-01-19T10:32:08.852Z,4.20
2023-01-19T10:34:36.731Z,6.63
2023-01-19T10:37:06.513Z,4.60
2023-01-19T10:39:37.911Z,2.50
2023-01-19T10:42:06.562Z,4.93
2023-01-19T10:44:37.685Z,3.10
2023-01-19T10:47:06.255Z,6.03
2023-01-19T10:49:40.513Z,4.88
2023-01-19T10:52:08.341Z,5.05
2023-01-19T10:54:37.317Z,3.58
2023-01-19T10:57:05.915Z,8.30
2023-01-19T10:59:38.101Z,3.35
2023-01-19T11:02:15.786Z,4.25
2023-01-19T11:04:44.905Z,3.50
2023-01-19T11:07:14.880Z,4.85
2023-01-19T11:09:42.078Z,4.03
2023-01-19T11:12:16.771Z,6.70
2023-01-19T11:14:43.997Z,7.22
2023-01-19T11:17:18.945Z,3.90
2023-01-19T11:19:53.112Z,4.97
2023-01-19T11:22:24.869Z,2.47
2023-01-19T11:24:52.110Z,4.07
2023-01-19T11:27:20.874Z,2.95
2023-01-19T11:29:50.373Z,11.60
2023-01-19T11:32:22.716Z,5.13
2023-01-19T11:34:50.474Z,3.03
2023-01-19T11:37:18.113Z,2.60
2023-01-19T11:39:52.628Z,7.53
2023-01-19T11:42:21.578Z,4.90
2023-01-19T11:44:51.525Z,3.55
2023-01-19T11:47:28.291Z,4.15
2023-01-19T11:50:01.406Z,4.90
2023-01-19T11:52:30.918Z,3.15
2023-01-19T11:55:14.670Z,7.63
2023-01-19T11:57:49.256Z,7.50
2023-01-19T12:00:36.062Z,4.90
2023-01-19T12:03:23.526Z,2.90
2023-01-19T12:05:54.911Z,3.22
2023-01-19T12:08:26.896Z,1.80
2023-01-19T12:10:56.324Z,5.90
2023-01-19T12:13:24.796Z,5.03
2023-01-19T12:16:04.533Z,4.82
2023-01-19T12:18:36.297Z,4.18
2023-01-19T12:21:04.357Z,2.92
2023-01-19T12:23:31.628Z,9.52
2023-01-19T12:26:04.786Z,6.22
2023-01-19T12:28:38.179Z,3.65
2023-01-19T12:31:05.704Z,4.07
2023-01-19T12:33:34.479Z,11.10
2023-01-19T12:36:04.119Z,3.42
2023-01-19T12:38:36.776Z,4.47
2023-01-19T12:41:20.582Z,2.92
2023-01-19T12:43:48.421Z,6.43
2023-01-19T12:46:27.343Z,0.77
2023-01-19T12:48:54.783Z,3.35
2023-01-19T12:51:25.853Z,2.03
2023-01-19T12:53:57.830Z,3.47
2023-01-19T12:56:30.912Z,5.07
2023-01-19T12:58:58.208Z,4.40
2023-01-19T13:01:26.977Z,4.57
2023-01-19T13:04:12.908Z,2.50
2023-01-19T13:06:49.077Z,1.98
2023-01-19T13:09:39.250Z,1.95
2023-01-19T13:12:15.567Z,1.63
2023-01-19T13:14:43.706Z,2.03
2023-01-19T13:17:34.182Z,2.75
2023-01-19T13:20:04.342Z,3.72
2023-01-19T13:22:47.151Z,3.28
2023-01-19T13:25:22.221Z,3.53
2023-01-19T13:27:49.976Z,4.47
2023-01-19T13:30:27.202Z,2.40
2023-01-19T13:32:58.780Z,1.42
2023-01-19T13:35:26.226Z,6.43
2023-01-19T13:37:53.521Z,12.32
2023-01-19T13:40:24.936Z,4.28
2023-01-19T13:42:53.458Z,5.03
2023-01-19T13:45:27.126Z,6.13
2023-01-19T13:47:55.542Z,6.00
2023-01-19T13:50:24.131Z,6.72
2023-01-19T13:52:53.879Z,7.35
2023-01-19T13:55:21.361Z,2.40
2023-01-19T13:57:49.534Z,3.45
2023-01-19T14:00:22.506Z,2.90
2023-01-19T14:02:52.917Z,3.83
2023-01-19T14:05:20.168Z,1.58
2023-01-19T14:07:47.557Z,2.60
2023-01-19T14:10:16.540Z,1.67
2023-01-19T14:12:58.527Z,0.77
2023-01-19T14:15:26.387Z,5.72
2023-01-19T14:18:09.738Z,2.85
2023-01-19T14:20:37.231Z,2.00
2023-01-19T14:23:05.280Z,1.77
2023-01-19T14:25:33.952Z,3.50
2023-01-19T14:28:19.823Z,2.05
2023-01-19T14:31:00.953Z,2.95
2023-01-19T14:33:41.158Z,3.47
2023-01-19T14:36:16.768Z,3.58
2023-01-19T14:38:45.589Z,3.10
2023-01-19T14:41:12.967Z,4.40
2023-01-19T14:43:44.634Z,2.78
2023-01-19T14:46:21.315Z,2.53
2023-01-19T14:48:49.115Z,2.38
2023-01-19T14:51:19.188Z,4.10
2023-01-19T14:53:48.382Z,3.63
2023-01-19T14:56:25.113Z,4.20
2023-01-19T14:58:52.236Z,3.47
2023-01-19T15:01:19.485Z,4.93
2023-01-19T15:03:46.574Z,7.00
2023-01-19T15:06:18.062Z,6.85
2023-01-19T15:08:45.759Z,1.73
2023-01-19T15:11:16.287Z,4.15
2023-01-19T15:13:44.612Z,3.08
2023-01-19T15:16:11.853Z,8.73
2023-01-19T15:18:39.077Z,2.88
2023-01-19T15:21:06.336Z,5.80
2023-01-19T15:23:33.741Z,3.33
2023-01-19T15:26:05.162Z,4.43
2023-01-19T15:28:32.530Z,2.67
2023-01-19T15:31:00.490Z,7.18
2023-01-19T15:33:30.600Z,5.65
2023-01-19T15:35:57.861Z,5.82
2023-01-19T15:38:26.601Z,4.75
2023-01-19T15:40:53.854Z,3.85
2023-01-19T15:43:21.454Z,4.50
2023-01-19T15:45:53.869Z,5.82
2023-01-19T15:48:22.459Z,6.03
2023-01-19T15:50:49.613Z,4.43
2023-01-19T15:53:18.412Z,4.22
2023-01-19T15:55:49.635Z,7.25
2023-01-19T15:58:16.813Z,5.37
2023-01-19T16:00:44.054Z,3.63
2023-01-19T16:03:11.838Z,4.30
2023-01-19T16:05:43.370Z,3.33
2023-01-19T16:08:11.705Z,4.38
2023-01-19T16:10:39.143Z,1.73
2023-01-19T16:13:06.298Z,3.55
2023-01-19T16:15:35.181Z,4.05
2023-01-19T16:18:02.628Z,7.47
2023-01-19T16:20:29.738Z,5.07
2023-01-19T16:23:09.635Z,7.47
2023-01-19T16:25:41.211Z,6.80
2023-01-19T16:28:08.381Z,5.05
2023-01-19T16:30:35.628Z,10.18
2023-01-19T16:33:02.883Z,6.55
2023-01-19T16:35:30.065Z,3.88
2023-01-19T16:37:57.213Z,4.25
2023-01-19T16:40:24.269Z,3.88
2023-01-19T16:42:51.385Z,4.75
2023-01-19T16:45:18.497Z,1.27
2023-01-19T16:47:50.456Z,3.42
2023-01-19T16:50:17.588Z,6.20
2023-01-19T16:52:44.830Z,5.15
2023-01-19T16:55:11.901Z,5.65
2023-01-19T16:57:39.144Z,4.68
2023-01-19T17:00:07.372Z,5.82
2023-01-19T17:02:34.641Z,5.38
2023-01-19T17:05:01.953Z,8.63
2023-01-19T17:07:29.275Z,5.80
2023-01-19T17:09:56.397Z,6.65
2023-01-19T17:12:23.689Z,3.17
2023-01-19T17:14:50.970Z,10.48
2023-01-19T17:17:18.096Z,3.97
2023-01-19T17:19:45.216Z,2.88
2023-01-19T17:22:13.619Z,5.80
2023-01-19T17:24:42.487Z,2.20
2023-01-19T17:27:10.972Z,8.55
2023-01-19T17:29:38.226Z,2.55
2023-01-19T17:32:05.563Z,7.97
2023-01-19T17:34:33.593Z,4.18
2023-01-19T17:37:03.182Z,3.65
2023-01-19T17:39:30.482Z,6.00
2023-01-19T17:41:57.767Z,5.43
2023-01-19T17:44:24.927Z,10.90
2023-01-19T17:46:52.093Z,9.48
2023-01-19T17:49:19.272Z,7.00
2023-01-19T17:51:49.725Z,14.98
2023-01-19T17:54:17.020Z,10.43
2023-01-19T17:56:44.308Z,15.30
2023-01-19T17:59:11.467Z,6.00
2023-01-19T18:01:40.345Z,9.15
2023-01-19T18:04:08.106Z,5.43
2023-01-19T18:06:35.266Z,5.78
2023-01-19T18:09:02.435Z,8.45
2023-01-19T18:11:29.598Z,8.00
2023-01-19T18:13:57.123Z,6.82
2023-01-19T18:16:25.271Z,6.85
2023-01-19T18:18:53.754Z,15.77
2023-01-19T18:21:22.528Z,8.43
2023-01-19T18:23:50.837Z,4.78
2023-01-19T18:26:22.672Z,4.20
2023-01-19T18:28:50.329Z,5.53
2023-01-19T18:31:18.996Z,5.45
2023-01-19T18:33:46.235Z,0.30
2023-01-19T18:36:13.593Z,2.15
2023-01-19T18:38:41.155Z,1.67
2023-01-19T18:41:10.879Z,1.65
2023-01-19T18:43:38.471Z,0.55
2023-01-19T18:46:07.219Z,1.45
2023-01-19T18:48:34.454Z,1.63
2023-01-19T18:51:05.590Z,3.85
2023-01-19T18:53:32.989Z,2.07
2023-01-19T18:56:02.001Z,2.28
2023-01-19T18:58:29.996Z,1.40
2023-01-19T19:00:57.637Z,0.73
2023-01-19T19:03:24.869Z,0.75
2023-01-19T19:05:52.136Z,4.85
2023-01-19T19:08:19.491Z,2.00
2023-01-19T19:10:46.613Z,31.75
2023-01-19T19:13:14.199Z,14.07
2023-01-19T19:15:41.633Z,8.73
2023-01-19T19:18:09.025Z,5.05
2023-01-19T19:20:38.706Z,2.28
2023-01-19T19:23:06.025Z,4.38
2023-01-19T19:25:33.508Z,1.98
2023-01-19T19:28:00.647Z,2.10
2023-01-19T19:30:28.252Z,4.28
2023-01-19T19:32:59.851Z,6.32
2023-01-19T19:35:27.003Z,2.55
2023-01-19T19:37:57.492Z,2.45
2023-01-19T19:40:26.008Z,5.53
2023-01-19T19:42:53.178Z,8.77
2023-01-19T19:45:20.521Z,14.70
2023-01-19T19:47:47.789Z,11.02
2023-01-19T19:50:17.060Z,3.17
2023-01-19T19:52:44.152Z,4.82
2023-01-19T19:55:12.643Z,5.38
2023-01-19T19:57:39.897Z,4.20
2023-01-19T20:00:07.322Z,7.40
2023-01-19T20:02:34.537Z,2.42
2023-01-19T20:05:01.724Z,5.53
2023-01-19T20:07:28.939Z,7.05
2023-01-19T20:09:56.147Z,6.22
2023-01-19T20:12:23.335Z,4.28
2023-01-19T20:14:50.521Z,6.38
2023-01-19T20:17:18.022Z,6.00
2023-01-19T20:19:47.529Z,7.15
2023-01-19T20:22:14.667Z,3.47
2023-01-19T20:24:41.768Z,3.85
2023-01-19T20:27:08.841Z,1.95
2023-01-19T20:29:35.984Z,4.15
2023-01-19T20:32:03.162Z,6.03
2023-01-19T20:34:33.359Z,3.80
2023-01-19T20:37:01.647Z,7.60
2023-01-19T20:39:30.236Z,6.90
2023-01-19T20:41:57.372Z,5.35
2023-01-19T20:44:26.078Z,3.05
2023-01-19T20:46:53.847Z,5.32
2023-01-19T20:49:21.094Z,9.43
2023-01-19T20:51:48.674Z,10.98
2023-01-19T20:54:17.359Z,10.80
2023-01-19T20:56:44.618Z,3.67
2023-01-19T20:59:11.862Z,6.32
2023-01-19T21:01:39.678Z,5.65
2023-01-19T21:04:06.962Z,4.15
2023-01-19T21:06:34.164Z,6.82
2023-01-19T21:09:01.374Z,4.53
2023-01-19T21:11:28.595Z,7.38
2023-01-19T21:13:56.492Z,3.47
2023-01-19T21:16:24.396Z,3.08
2023-01-19T21:18:51.663Z,5.00
2023-01-19T21:21:29.759Z,5.75
2023-01-19T21:23:57.900Z,5.53
2023-01-19T21:26:25.062Z,5.15
2023-01-19T21:28:52.177Z,5.47
2023-01-19T21:31:21.012Z,3.55
2023-01-19T21:33:49.255Z,2.67
2023-01-19T21:36:16.409Z,5.68
2023-01-19T21:38:43.673Z,2.50
2023-01-19T21:41:12.652Z,3.78
2023-01-19T21:43:41.849Z,3.97
2023-01-19T21:46:19.644Z,2.78
2023-01-19T21:48:46.952Z,3.55
2023-01-19T21:51:14.819Z,2.38
2023-01-19T21:53:42.063Z,1.63
2023-01-19T21:56:10.025Z,2.95
2023-01-19T21:58:37.415Z,5.00
2023-01-19T22:01:06.505Z,4.57
2023-01-19T22:03:33.896Z,1.92
2023-01-19T22:06:05.198Z,2.88
2023-01-19T22:08:32.539Z,3.30
2023-01-19T22:11:06.779Z,3.67
2023-01-19T22:13:34.259Z,2.92
2023-01-19T22:16:02.127Z,5.07
2023-01-19T22:18:29.287Z,3.42
2023-01-19T22:20:56.614Z,3.35
2023-01-19T22:23:23.720Z,3.55
2023-01-19T22:25:50.852Z,2.67
2023-01-19T22:28:18.084Z,3.88
2023-01-19T22:30:45.528Z,2.67
2023-01-19T22:33:12.744Z,2.42
2023-01-19T22:35:39.914Z,4.78
2023-01-19T22:38:06.988Z,3.25
2023-01-19T22:40:34.096Z,3.08
2023-01-19T22:43:01.228Z,2.70
2023-01-19T22:45:28.309Z,3.75
2023-01-19T22:47:55.411Z,3.28
2023-01-19T22:50:22.574Z,3.28
2023-01-19T22:52:49.653Z,2.40
2023-01-19T22:55:16.799Z,5.18
2023-01-19T22:57:43.870Z,5.90
2023-01-19T23:00:11.349Z,4.53
2023-01-19T23:02:38.482Z,4.80
2023-01-19T23:05:05.766Z,5.82
2023-01-19T23:07:32.910Z,2.58
2023-01-19T23:10:00.054Z,4.10
2023-01-19T23:12:27.298Z,3.45
2023-01-19T23:14:54.460Z,2.78
2023-01-19T23:17:21.608Z,4.65
2023-01-19T23:19:48.675Z,4.47
2023-01-19T23:22:15.772Z,4.43
2023-01-19T23:24:42.898Z,4.72
2023-01-19T23:27:11.778Z,5.20
2023-01-19T23:29:38.948Z,4.72
2023-01-19T23:32:06.149Z,5.00
2023-01-19T23:34:33.205Z,4.00
2023-01-19T23:37:00.409Z,5.47
2023-01-19T23:39:27.756Z,6.80
2023-01-19T23:41:54.838Z,5.93
2023-01-19T23:44:22.052Z,5.07
2023-01-19T23:46:49.227Z,3.25
2023-01-19T23:49:17.096Z,4.78
2023-01-19T23:51:44.366Z,4.80
2023-01-19T23:54:12.370Z,4.05
2023-01-19T23:56:39.648Z,7.20
2023-01-19T23:59:08.289Z,5.65
